Search for airport 
image banner adimage banner adimage banner ad
image banner ad

KOKB - Bob Maxwell Memorial Airfield

Located in Oceanside, United States

ICAO - OKB, IATA -

Data provided by Airmate  

General information

Coordinates: N33°13'5" W117°21'5"
Elevation is 28 feet MSL.
Magnetic variation is 13° East
View others Airports in California

Operational data

Special qualification required
Current time UTC:
Current local time:
Weather
METAR: KOKB 211152Z AUTO 00000KT 8SM OVC009 17/14 A2994 RMK AO2 SLP138 T01670144 10167 20133 53007 $
View NOTAMs / SUP AIP / TFR affecting this airport [VIEW]
Communications frequencies: [VIEW]

Runways:

RWY identifierQFULength (ft)Width (ft)SurfaceLDA (ft)
0680°271275ASPH
24260°271275ASPH

Airport contact information

Address: Oceanside United States

Satellite view of KOKB